Doris, Washington
Current Conditions -  °F | °C
As of 8:16 AM on Wednesday 28 Jan 2015 (Local Time) from K1YT Reporting Station
Moderate Fog Moderate Fog  
Wind Chill: 27°   Ceiling: 200
Heat Index: 27°   Visibility: 0.18mi
Dew Point: 25°   Wind: 0mph
Humidity: 93%   Direction: NA
Pressure: 30.35"   Gusts: NA
Location:  46.8679°N, 120.008°W
Report Text: K1YT 281616Z AUTO 00000KT 3/16SM FZFG VV002 M03/M04 A3035 RMK AO2
Loading
Personal Weather Stations






























Interactive Weather Map New forecast layout! Learn more

10-Day Weather Forecast

Advertisements
Track Severe Weather on mobile